sensor_id;sensor_type;location;lat;lon;timestamp;P1;durP1;ratioP1;P2;durP2;ratioP2
18214;SDS011;9233;51.312;6.512;2022-10-31T00:02:48;10.13;;;4.70;;
18214;SDS011;9233;51.312;6.512;2022-10-31T00:05:36;11.53;;;5.23;;
18214;SDS011;9233;51.312;6.512;2022-10-31T00:08:26;9.60;;;4.70;;
18214;SDS011;9233;51.312;6.512;2022-10-31T00:11:13;9.53;;;5.10;;
18214;SDS011;9233;51.312;6.512;2022-10-31T00:14:00;12.30;;;4.73;;
18214;SDS011;9233;51.312;6.512;2022-10-31T00:16:47;11.10;;;4.77;;
18214;SDS011;9233;51.312;6.512;2022-10-31T00:19:33;11.87;;;5.23;;
18214;SDS011;9233;51.312;6.512;2022-10-31T00:22:21;15.73;;;5.50;;
18214;SDS011;9233;51.312;6.512;2022-10-31T00:25:08;13.07;;;5.77;;
18214;SDS011;9233;51.312;6.512;2022-10-31T00:27:55;11.27;;;5.50;;
18214;SDS011;9233;51.312;6.512;2022-10-31T00:30:41;9.53;;;5.47;;
18214;SDS011;9233;51.312;6.512;2022-10-31T00:33:28;11.10;;;5.70;;
18214;SDS011;9233;51.312;6.512;2022-10-31T00:36:15;9.90;;;5.23;;
18214;SDS011;9233;51.312;6.512;2022-10-31T00:39:04;15.60;;;5.73;;
18214;SDS011;9233;51.312;6.512;2022-10-31T00:41:51;12.10;;;5.60;;
18214;SDS011;9233;51.312;6.512;2022-10-31T00:44:37;12.93;;;6.10;;
18214;SDS011;9233;51.312;6.512;2022-10-31T00:47:24;10.77;;;5.63;;
18214;SDS011;9233;51.312;6.512;2022-10-31T00:50:10;9.47;;;5.17;;
18214;SDS011;9233;51.312;6.512;2022-10-31T00:52:57;12.83;;;5.33;;
18214;SDS011;9233;51.312;6.512;2022-10-31T00:55:45;9.83;;;5.07;;
18214;SDS011;9233;51.312;6.512;2022-10-31T00:58:32;11.67;;;5.70;;
18214;SDS011;9233;51.312;6.512;2022-10-31T01:01:18;9.70;;;5.30;;
18214;SDS011;9233;51.312;6.512;2022-10-31T01:04:05;9.27;;;5.13;;
18214;SDS011;9233;51.312;6.512;2022-10-31T01:06:52;13.60;;;5.17;;
18214;SDS011;9233;51.312;6.512;2022-10-31T01:09:38;11.87;;;4.87;;
18214;SDS011;9233;51.312;6.512;2022-10-31T01:12:26;7.60;;;5.10;;
18214;SDS011;9233;51.312;6.512;2022-10-31T01:15:14;10.53;;;4.67;;
18214;SDS011;9233;51.312;6.512;2022-10-31T01:18:06;9.30;;;4.90;;
18214;SDS011;9233;51.312;6.512;2022-10-31T01:20:57;10.93;;;5.23;;
18214;SDS011;9233;51.312;6.512;2022-10-31T01:23:44;9.77;;;4.57;;
18214;SDS011;9233;51.312;6.512;2022-10-31T01:26:32;11.50;;;4.73;;
18214;SDS011;9233;51.312;6.512;2022-10-31T01:29:21;10.13;;;4.70;;
18214;SDS011;9233;51.312;6.512;2022-10-31T01:32:08;8.70;;;4.33;;
18214;SDS011;9233;51.312;6.512;2022-10-31T01:34:54;8.80;;;4.53;;
18214;SDS011;9233;51.312;6.512;2022-10-31T01:37:41;8.83;;;5.03;;
18214;SDS011;9233;51.312;6.512;2022-10-31T01:40:28;7.43;;;4.90;;
18214;SDS011;9233;51.312;6.512;2022-10-31T01:43:15;8.33;;;4.67;;
18214;SDS011;9233;51.312;6.512;2022-10-31T01:46:03;10.07;;;5.33;;
18214;SDS011;9233;51.312;6.512;2022-10-31T01:48:50;12.17;;;6.27;;
18214;SDS011;9233;51.312;6.512;2022-10-31T01:51:42;12.37;;;5.20;;
18214;SDS011;9233;51.312;6.512;2022-10-31T01:54:32;7.53;;;4.73;;
18214;SDS011;9233;51.312;6.512;2022-10-31T01:57:20;9.70;;;5.00;;
18214;SDS011;9233;51.312;6.512;2022-10-31T02:00:10;9.47;;;4.77;;
18214;SDS011;9233;51.312;6.512;2022-10-31T02:03:02;10.57;;;4.93;;
18214;SDS011;9233;51.312;6.512;2022-10-31T02:05:49;8.13;;;4.70;;
18214;SDS011;9233;51.312;6.512;2022-10-31T02:08:40;8.53;;;4.50;;
18214;SDS011;9233;51.312;6.512;2022-10-31T02:11:27;10.10;;;4.73;;
18214;SDS011;9233;51.312;6.512;2022-10-31T02:14:14;10.27;;;5.17;;
18214;SDS011;9233;51.312;6.512;2022-10-31T02:17:01;10.03;;;4.70;;
18214;SDS011;9233;51.312;6.512;2022-10-31T02:19:51;12.23;;;5.50;;
18214;SDS011;9233;51.312;6.512;2022-10-31T02:22:46;7.10;;;4.67;;
18214;SDS011;9233;51.312;6.512;2022-10-31T02:25:58;12.40;;;5.03;;
18214;SDS011;9233;51.312;6.512;2022-10-31T02:32:12;11.93;;;4.93;;
18214;SDS011;9233;51.312;6.512;2022-10-31T02:35:07;13.27;;;5.30;;
18214;SDS011;9233;51.312;6.512;2022-10-31T02:38:00;7.53;;;4.17;;
18214;SDS011;9233;51.312;6.512;2022-10-31T02:40:53;8.80;;;4.53;;
18214;SDS011;9233;51.312;6.512;2022-10-31T02:43:54;9.60;;;4.37;;
18214;SDS011;9233;51.312;6.512;2022-10-31T02:46:48;10.43;;;4.77;;
18214;SDS011;9233;51.312;6.512;2022-10-31T02:49:39;10.77;;;4.83;;
18214;SDS011;9233;51.312;6.512;2022-10-31T02:52:29;6.93;;;4.60;;
18214;SDS011;9233;51.312;6.512;2022-10-31T02:58:38;9.00;;;4.33;;
18214;SDS011;9233;51.312;6.512;2022-10-31T03:01:42;8.50;;;4.67;;
18214;SDS011;9233;51.312;6.512;2022-10-31T03:04:44;13.00;;;4.67;;
18214;SDS011;9233;51.312;6.512;2022-10-31T03:07:46;9.87;;;4.53;;
18214;SDS011;9233;51.312;6.512;2022-10-31T03:10:38;10.07;;;5.00;;
18214;SDS011;9233;51.312;6.512;2022-10-31T03:13:29;9.90;;;4.83;;
18214;SDS011;9233;51.312;6.512;2022-10-31T03:16:21;8.73;;;4.93;;
18214;SDS011;9233;51.312;6.512;2022-10-31T03:19:12;14.53;;;4.90;;
18214;SDS011;9233;51.312;6.512;2022-10-31T03:22:04;11.53;;;4.97;;
18214;SDS011;9233;51.312;6.512;2022-10-31T03:24:53;10.33;;;5.97;;
18214;SDS011;9233;51.312;6.512;2022-10-31T03:27:41;8.63;;;5.07;;
18214;SDS011;9233;51.312;6.512;2022-10-31T03:30:32;14.50;;;6.50;;
18214;SDS011;9233;51.312;6.512;2022-10-31T03:33:21;8.70;;;5.10;;
18214;SDS011;9233;51.312;6.512;2022-10-31T03:36:10;9.27;;;5.37;;
18214;SDS011;9233;51.312;6.512;2022-10-31T03:39:01;10.60;;;5.00;;
18214;SDS011;9233;51.312;6.512;2022-10-31T03:41:52;19.60;;;6.23;;
18214;SDS011;9233;51.312;6.512;2022-10-31T03:44:41;12.93;;;4.90;;
18214;SDS011;9233;51.312;6.512;2022-10-31T03:47:30;6.90;;;4.60;;
18214;SDS011;9233;51.312;6.512;2022-10-31T03:50:18;12.93;;;5.70;;
18214;SDS011;9233;51.312;6.512;2022-10-31T03:53:07;12.00;;;5.47;;
18214;SDS011;9233;51.312;6.512;2022-10-31T03:55:59;8.17;;;5.00;;
18214;SDS011;9233;51.312;6.512;2022-10-31T03:58:53;7.47;;;4.73;;
18214;SDS011;9233;51.312;6.512;2022-10-31T04:01:44;8.47;;;5.17;;
18214;SDS011;9233;51.312;6.512;2022-10-31T04:04:34;10.63;;;5.23;;
18214;SDS011;9233;51.312;6.512;2022-10-31T04:07:25;10.93;;;5.17;;
18214;SDS011;9233;51.312;6.512;2022-10-31T04:10:16;10.47;;;6.10;;
18214;SDS011;9233;51.312;6.512;2022-10-31T04:13:05;16.63;;;5.17;;
18214;SDS011;9233;51.312;6.512;2022-10-31T04:16:05;9.50;;;4.83;;
18214;SDS011;9233;51.312;6.512;2022-10-31T04:18:52;9.83;;;4.73;;
18214;SDS011;9233;51.312;6.512;2022-10-31T04:21:39;8.43;;;5.40;;
18214;SDS011;9233;51.312;6.512;2022-10-31T04:24:29;8.30;;;4.43;;
18214;SDS011;9233;51.312;6.512;2022-10-31T04:27:16;9.77;;;5.50;;
18214;SDS011;9233;51.312;6.512;2022-10-31T04:30:05;11.83;;;5.17;;
18214;SDS011;9233;51.312;6.512;2022-10-31T04:32:56;8.67;;;4.63;;
18214;SDS011;9233;51.312;6.512;2022-10-31T04:35:42;11.63;;;5.23;;
18214;SDS011;9233;51.312;6.512;2022-10-31T04:38:29;9.37;;;4.87;;
18214;SDS011;9233;51.312;6.512;2022-10-31T04:41:16;11.07;;;5.10;;
18214;SDS011;9233;51.312;6.512;2022-10-31T04:44:17;10.43;;;4.80;;
18214;SDS011;9233;51.312;6.512;2022-10-31T04:47:09;11.07;;;5.60;;
18214;SDS011;9233;51.312;6.512;2022-10-31T04:49:55;11.37;;;5.10;;
18214;SDS011;9233;51.312;6.512;2022-10-31T04:52:42;10.97;;;4.87;;
18214;SDS011;9233;51.312;6.512;2022-10-31T04:55:32;14.00;;;5.10;;
18214;SDS011;9233;51.312;6.512;2022-10-31T04:58:40;12.43;;;4.90;;
18214;SDS011;9233;51.312;6.512;2022-10-31T05:01:28;11.27;;;5.23;;
18214;SDS011;9233;51.312;6.512;2022-10-31T05:04:18;10.50;;;4.93;;
18214;SDS011;9233;51.312;6.512;2022-10-31T05:07:05;12.83;;;4.80;;
18214;SDS011;9233;51.312;6.512;2022-10-31T05:09:52;10.60;;;4.57;;
18214;SDS011;9233;51.312;6.512;2022-10-31T05:12:44;10.50;;;5.03;;
18214;SDS011;9233;51.312;6.512;2022-10-31T05:15:50;7.20;;;5.03;;
18214;SDS011;9233;51.312;6.512;2022-10-31T05:19:13;14.77;;;5.20;;
18214;SDS011;9233;51.312;6.512;2022-10-31T05:22:35;12.03;;;4.73;;
18214;SDS011;9233;51.312;6.512;2022-10-31T05:25:23;10.63;;;5.20;;
18214;SDS011;9233;51.312;6.512;2022-10-31T05:28:11;10.87;;;5.27;;
18214;SDS011;9233;51.312;6.512;2022-10-31T05:30:58;12.73;;;5.50;;
18214;SDS011;9233;51.312;6.512;2022-10-31T05:33:45;14.73;;;5.10;;
18214;SDS011;9233;51.312;6.512;2022-10-31T05:36:50;10.00;;;4.27;;
18214;SDS011;9233;51.312;6.512;2022-10-31T05:39:42;9.97;;;4.60;;
18214;SDS011;9233;51.312;6.512;2022-10-31T05:42:33;10.53;;;5.57;;
18214;SDS011;9233;51.312;6.512;2022-10-31T05:45:20;7.10;;;4.33;;
18214;SDS011;9233;51.312;6.512;2022-10-31T05:48:14;11.27;;;5.40;;
18214;SDS011;9233;51.312;6.512;2022-10-31T05:51:20;12.17;;;4.83;;
18214;SDS011;9233;51.312;6.512;2022-10-31T05:54:07;11.10;;;4.30;;
18214;SDS011;9233;51.312;6.512;2022-10-31T05:56:57;9.93;;;4.67;;
18214;SDS011;9233;51.312;6.512;2022-10-31T05:59:44;12.10;;;4.80;;
18214;SDS011;9233;51.312;6.512;2022-10-31T06:02:30;12.63;;;4.93;;
18214;SDS011;9233;51.312;6.512;2022-10-31T06:05:37;11.37;;;5.10;;
18214;SDS011;9233;51.312;6.512;2022-10-31T06:08:24;9.93;;;4.77;;
18214;SDS011;9233;51.312;6.512;2022-10-31T06:11:13;10.83;;;5.07;;
18214;SDS011;9233;51.312;6.512;2022-10-31T06:14:23;11.90;;;5.00;;
18214;SDS011;9233;51.312;6.512;2022-10-31T06:17:13;12.20;;;4.50;;
18214;SDS011;9233;51.312;6.512;2022-10-31T06:20:06;10.50;;;4.77;;
18214;SDS011;9233;51.312;6.512;2022-10-31T06:23:00;10.37;;;4.53;;
18214;SDS011;9233;51.312;6.512;2022-10-31T06:25:48;6.87;;;4.40;;
18214;SDS011;9233;51.312;6.512;2022-10-31T06:28:35;7.63;;;4.43;;
18214;SDS011;9233;51.312;6.512;2022-10-31T06:31:37;8.57;;;4.87;;
18214;SDS011;9233;51.312;6.512;2022-10-31T06:34:23;11.83;;;5.30;;
18214;SDS011;9233;51.312;6.512;2022-10-31T06:37:11;8.57;;;4.23;;
18214;SDS011;9233;51.312;6.512;2022-10-31T06:40:01;9.53;;;4.33;;
18214;SDS011;9233;51.312;6.512;2022-10-31T06:42:55;9.77;;;4.23;;
18214;SDS011;9233;51.312;6.512;2022-10-31T06:45:43;9.57;;;4.70;;
18214;SDS011;9233;51.312;6.512;2022-10-31T06:48:34;15.17;;;5.23;;
18214;SDS011;9233;51.312;6.512;2022-10-31T06:51:47;11.03;;;5.03;;
18214;SDS011;9233;51.312;6.512;2022-10-31T06:54:34;8.30;;;4.30;;
18214;SDS011;9233;51.312;6.512;2022-10-31T06:57:22;12.33;;;5.63;;
18214;SDS011;9233;51.312;6.512;2022-10-31T07:00:10;10.27;;;4.43;;
18214;SDS011;9233;51.312;6.512;2022-10-31T07:03:02;9.97;;;4.80;;
18214;SDS011;9233;51.312;6.512;2022-10-31T07:05:51;9.83;;;4.27;;
18214;SDS011;9233;51.312;6.512;2022-10-31T07:08:39;10.67;;;4.50;;
18214;SDS011;9233;51.312;6.512;2022-10-31T07:11:26;9.30;;;4.53;;
18214;SDS011;9233;51.312;6.512;2022-10-31T07:14:14;7.70;;;4.13;;
18214;SDS011;9233;51.312;6.512;2022-10-31T07:17:01;8.70;;;4.33;;
18214;SDS011;9233;51.312;6.512;2022-10-31T07:19:55;7.90;;;4.40;;
18214;SDS011;9233;51.312;6.512;2022-10-31T07:22:43;10.70;;;4.57;;
18214;SDS011;9233;51.312;6.512;2022-10-31T07:25:31;7.90;;;4.10;;
18214;SDS011;9233;51.312;6.512;2022-10-31T07:28:25;10.83;;;4.60;;
18214;SDS011;9233;51.312;6.512;2022-10-31T07:31:13;8.87;;;4.50;;
18214;SDS011;9233;51.312;6.512;2022-10-31T07:34:00;13.10;;;4.90;;
18214;SDS011;9233;51.312;6.512;2022-10-31T07:36:46;9.07;;;4.40;;
18214;SDS011;9233;51.312;6.512;2022-10-31T07:39:34;8.03;;;4.47;;
18214;SDS011;9233;51.312;6.512;2022-10-31T07:42:21;10.37;;;4.40;;
18214;SDS011;9233;51.312;6.512;2022-10-31T07:45:10;8.23;;;4.00;;
18214;SDS011;9233;51.312;6.512;2022-10-31T07:48:27;10.60;;;4.27;;
18214;SDS011;9233;51.312;6.512;2022-10-31T07:51:39;10.03;;;4.03;;
18214;SDS011;9233;51.312;6.512;2022-10-31T07:54:54;6.43;;;4.20;;
18214;SDS011;9233;51.312;6.512;2022-10-31T07:57:42;7.80;;;4.40;;
18214;SDS011;9233;51.312;6.512;2022-10-31T08:00:30;11.63;;;4.07;;
18214;SDS011;9233;51.312;6.512;2022-10-31T08:03:17;10.40;;;4.53;;
18214;SDS011;9233;51.312;6.512;2022-10-31T08:06:24;11.17;;;4.47;;
18214;SDS011;9233;51.312;6.512;2022-10-31T08:09:29;9.47;;;4.23;;
18214;SDS011;9233;51.312;6.512;2022-10-31T08:12:21;6.17;;;3.93;;
18214;SDS011;9233;51.312;6.512;2022-10-31T08:15:08;8.97;;;4.77;;
18214;SDS011;9233;51.312;6.512;2022-10-31T08:17:55;15.77;;;4.50;;
18214;SDS011;9233;51.312;6.512;2022-10-31T08:20:42;16.77;;;3.83;;
18214;SDS011;9233;51.312;6.512;2022-10-31T08:23:29;7.23;;;3.50;;
18214;SDS011;9233;51.312;6.512;2022-10-31T08:26:16;7.07;;;3.93;;
18214;SDS011;9233;51.312;6.512;2022-10-31T08:29:04;8.60;;;3.97;;
18214;SDS011;9233;51.312;6.512;2022-10-31T08:31:54;9.80;;;4.40;;
18214;SDS011;9233;51.312;6.512;2022-10-31T08:34:59;11.53;;;5.10;;
18214;SDS011;9233;51.312;6.512;2022-10-31T08:38:05;10.10;;;4.73;;
18214;SDS011;9233;51.312;6.512;2022-10-31T08:40:53;11.33;;;4.80;;
18214;SDS011;9233;51.312;6.512;2022-10-31T08:43:40;11.53;;;4.43;;
18214;SDS011;9233;51.312;6.512;2022-10-31T08:46:28;7.10;;;4.03;;
18214;SDS011;9233;51.312;6.512;2022-10-31T08:49:14;10.57;;;4.40;;
18214;SDS011;9233;51.312;6.512;2022-10-31T08:52:02;8.40;;;4.83;;
18214;SDS011;9233;51.312;6.512;2022-10-31T08:54:54;19.50;;;6.00;;
18214;SDS011;9233;51.312;6.512;2022-10-31T08:58:19;10.87;;;4.83;;
18214;SDS011;9233;51.312;6.512;2022-10-31T09:01:10;10.43;;;5.13;;
18214;SDS011;9233;51.312;6.512;2022-10-31T09:03:58;7.57;;;4.60;;
18214;SDS011;9233;51.312;6.512;2022-10-31T09:06:45;8.53;;;4.73;;
18214;SDS011;9233;51.312;6.512;2022-10-31T09:09:33;12.90;;;6.00;;
18214;SDS011;9233;51.312;6.512;2022-10-31T09:12:20;9.93;;;5.07;;
18214;SDS011;9233;51.312;6.512;2022-10-31T09:15:06;9.63;;;5.00;;
18214;SDS011;9233;51.312;6.512;2022-10-31T09:18:17;12.07;;;6.07;;
18214;SDS011;9233;51.312;6.512;2022-10-31T09:21:18;11.00;;;4.83;;
18214;SDS011;9233;51.312;6.512;2022-10-31T09:24:06;13.80;;;5.40;;
18214;SDS011;9233;51.312;6.512;2022-10-31T09:26:52;17.47;;;5.63;;
18214;SDS011;9233;51.312;6.512;2022-10-31T09:29:45;12.80;;;5.43;;
18214;SDS011;9233;51.312;6.512;2022-10-31T09:32:32;11.10;;;5.60;;
18214;SDS011;9233;51.312;6.512;2022-10-31T09:35:19;11.80;;;5.80;;
18214;SDS011;9233;51.312;6.512;2022-10-31T09:38:08;9.97;;;6.23;;
18214;SDS011;9233;51.312;6.512;2022-10-31T09:41:03;13.60;;;6.10;;
18214;SDS011;9233;51.312;6.512;2022-10-31T09:43:56;12.20;;;6.27;;
18214;SDS011;9233;51.312;6.512;2022-10-31T09:46:47;12.87;;;6.40;;
18214;SDS011;9233;51.312;6.512;2022-10-31T09:49:45;16.80;;;6.27;;
18214;SDS011;9233;51.312;6.512;2022-10-31T09:52:40;14.50;;;6.90;;
18214;SDS011;9233;51.312;6.512;2022-10-31T09:55:40;16.03;;;6.30;;
18214;SDS011;9233;51.312;6.512;2022-10-31T09:58:28;12.03;;;5.50;;
18214;SDS011;9233;51.312;6.512;2022-10-31T10:01:19;13.40;;;5.93;;
18214;SDS011;9233;51.312;6.512;2022-10-31T10:04:25;6.67;;;2.73;;
18214;SDS011;9233;51.312;6.512;2022-10-31T10:07:38;9.13;;;3.70;;
18214;SDS011;9233;51.312;6.512;2022-10-31T10:10:50;11.73;;;4.73;;
18214;SDS011;9233;51.312;6.512;2022-10-31T10:14:03;11.37;;;5.27;;
18214;SDS011;9233;51.312;6.512;2022-10-31T10:17:00;9.27;;;4.90;;
18214;SDS011;9233;51.312;6.512;2022-10-31T10:20:02;15.77;;;4.57;;
18214;SDS011;9233;51.312;6.512;2022-10-31T10:23:01;14.17;;;5.03;;
18214;SDS011;9233;51.312;6.512;2022-10-31T10:26:05;10.97;;;4.90;;
18214;SDS011;9233;51.312;6.512;2022-10-31T10:29:01;14.83;;;5.27;;
18214;SDS011;9233;51.312;6.512;2022-10-31T10:31:49;8.97;;;4.73;;
18214;SDS011;9233;51.312;6.512;2022-10-31T10:34:39;9.50;;;4.80;;
18214;SDS011;9233;51.312;6.512;2022-10-31T10:37:30;10.63;;;4.93;;
18214;SDS011;9233;51.312;6.512;2022-10-31T10:40:18;14.07;;;5.20;;
18214;SDS011;9233;51.312;6.512;2022-10-31T10:43:15;10.77;;;4.77;;
18214;SDS011;9233;51.312;6.512;2022-10-31T10:46:18;11.20;;;4.93;;
18214;SDS011;9233;51.312;6.512;2022-10-31T10:49:23;8.07;;;4.43;;
18214;SDS011;9233;51.312;6.512;2022-10-31T10:52:17;11.67;;;4.63;;
18214;SDS011;9233;51.312;6.512;2022-10-31T10:55:11;11.60;;;4.80;;
18214;SDS011;9233;51.312;6.512;2022-10-31T10:58:03;12.97;;;5.50;;
18214;SDS011;9233;51.312;6.512;2022-10-31T11:00:51;13.53;;;5.47;;
18214;SDS011;9233;51.312;6.512;2022-10-31T11:03:39;10.63;;;5.27;;
18214;SDS011;9233;51.312;6.512;2022-10-31T11:06:26;13.87;;;5.77;;
18214;SDS011;9233;51.312;6.512;2022-10-31T11:09:14;12.00;;;5.73;;
18214;SDS011;9233;51.312;6.512;2022-10-31T11:12:05;12.20;;;5.47;;
18214;SDS011;9233;51.312;6.512;2022-10-31T11:15:00;10.37;;;5.07;;
18214;SDS011;9233;51.312;6.512;2022-10-31T11:17:51;13.00;;;5.00;;
18214;SDS011;9233;51.312;6.512;2022-10-31T11:20:38;13.83;;;5.53;;
18214;SDS011;9233;51.312;6.512;2022-10-31T11:23:26;11.70;;;5.87;;
18214;SDS011;9233;51.312;6.512;2022-10-31T11:26:18;10.40;;;4.90;;
18214;SDS011;9233;51.312;6.512;2022-10-31T11:29:10;11.80;;;5.27;;
18214;SDS011;9233;51.312;6.512;2022-10-31T11:32:00;13.87;;;5.03;;
18214;SDS011;9233;51.312;6.512;2022-10-31T11:34:49;10.67;;;5.47;;
18214;SDS011;9233;51.312;6.512;2022-10-31T11:37:40;11.30;;;5.17;;
18214;SDS011;9233;51.312;6.512;2022-10-31T11:40:29;12.13;;;4.67;;
18214;SDS011;9233;51.312;6.512;2022-10-31T11:43:15;9.83;;;4.63;;
18214;SDS011;9233;51.312;6.512;2022-10-31T11:46:08;11.73;;;5.17;;
18214;SDS011;9233;51.312;6.512;2022-10-31T11:48:55;17.03;;;6.03;;
18214;SDS011;9233;51.312;6.512;2022-10-31T11:51:46;11.03;;;4.77;;
18214;SDS011;9233;51.312;6.512;2022-10-31T11:54:36;12.13;;;5.13;;
18214;SDS011;9233;51.312;6.512;2022-10-31T11:57:28;10.53;;;5.07;;
18214;SDS011;9233;51.312;6.512;2022-10-31T12:00:20;11.80;;;4.83;;
18214;SDS011;9233;51.312;6.512;2022-10-31T12:06:22;10.83;;;5.27;;
18214;SDS011;9233;51.312;6.512;2022-10-31T12:09:15;15.87;;;4.90;;
18214;SDS011;9233;51.312;6.512;2022-10-31T12:12:10;11.83;;;4.90;;
18214;SDS011;9233;51.312;6.512;2022-10-31T12:15:03;11.50;;;5.30;;
18214;SDS011;9233;51.312;6.512;2022-10-31T12:18:02;12.73;;;5.00;;
18214;SDS011;9233;51.312;6.512;2022-10-31T12:21:07;10.07;;;4.47;;
18214;SDS011;9233;51.312;6.512;2022-10-31T12:24:06;10.23;;;4.23;;
18214;SDS011;9233;51.312;6.512;2022-10-31T12:27:02;10.93;;;4.50;;
18214;SDS011;9233;51.312;6.512;2022-10-31T12:30:02;10.23;;;4.60;;
18214;SDS011;9233;51.312;6.512;2022-10-31T12:33:02;9.63;;;4.40;;
18214;SDS011;9233;51.312;6.512;2022-10-31T12:36:11;11.00;;;4.10;;
18214;SDS011;9233;51.312;6.512;2022-10-31T12:42:17;10.17;;;3.77;;
18214;SDS011;9233;51.312;6.512;2022-10-31T12:45:12;7.30;;;3.70;;
18214;SDS011;9233;51.312;6.512;2022-10-31T12:48:22;11.37;;;4.20;;
18214;SDS011;9233;51.312;6.512;2022-10-31T12:51:22;10.07;;;4.10;;
18214;SDS011;9233;51.312;6.512;2022-10-31T12:54:20;10.00;;;4.17;;
18214;SDS011;9233;51.312;6.512;2022-10-31T12:57:20;9.63;;;4.20;;
18214;SDS011;9233;51.312;6.512;2022-10-31T13:00:11;10.23;;;3.83;;
18214;SDS011;9233;51.312;6.512;2022-10-31T13:03:17;15.10;;;4.00;;
18214;SDS011;9233;51.312;6.512;2022-10-31T13:06:08;8.90;;;3.63;;
18214;SDS011;9233;51.312;6.512;2022-10-31T13:08:58;8.50;;;3.80;;
18214;SDS011;9233;51.312;6.512;2022-10-31T13:11:47;14.60;;;4.30;;
18214;SDS011;9233;51.312;6.512;2022-10-31T13:14:39;12.03;;;4.50;;
18214;SDS011;9233;51.312;6.512;2022-10-31T13:17:29;11.30;;;3.90;;
18214;SDS011;9233;51.312;6.512;2022-10-31T13:20:20;9.87;;;3.57;;
18214;SDS011;9233;51.312;6.512;2022-10-31T13:23:16;9.10;;;3.50;;
18214;SDS011;9233;51.312;6.512;2022-10-31T13:26:08;8.10;;;3.30;;
18214;SDS011;9233;51.312;6.512;2022-10-31T13:28:59;5.03;;;3.17;;
18214;SDS011;9233;51.312;6.512;2022-10-31T13:31:49;10.53;;;3.50;;
18214;SDS011;9233;51.312;6.512;2022-10-31T13:34:37;10.33;;;2.90;;
18214;SDS011;9233;51.312;6.512;2022-10-31T13:37:28;8.87;;;3.27;;
18214;SDS011;9233;51.312;6.512;2022-10-31T13:40:19;10.90;;;3.40;;
18214;SDS011;9233;51.312;6.512;2022-10-31T13:43:11;9.77;;;3.10;;
18214;SDS011;9233;51.312;6.512;2022-10-31T13:49:24;6.13;;;2.80;;
18214;SDS011;9233;51.312;6.512;2022-10-31T13:52:17;10.83;;;3.13;;
18214;SDS011;9233;51.312;6.512;2022-10-31T13:55:33;8.70;;;3.13;;
18214;SDS011;9233;51.312;6.512;2022-10-31T13:58:23;6.27;;;2.73;;
18214;SDS011;9233;51.312;6.512;2022-10-31T14:01:15;8.57;;;2.90;;
18214;SDS011;9233;51.312;6.512;2022-10-31T14:04:04;4.43;;;2.40;;
18214;SDS011;9233;51.312;6.512;2022-10-31T14:06:55;5.37;;;2.80;;
18214;SDS011;9233;51.312;6.512;2022-10-31T14:09:49;11.07;;;3.20;;
18214;SDS011;9233;51.312;6.512;2022-10-31T14:12:40;11.63;;;4.27;;
18214;SDS011;9233;51.312;6.512;2022-10-31T14:15:28;5.07;;;2.83;;
18214;SDS011;9233;51.312;6.512;2022-10-31T14:18:23;8.10;;;3.03;;
18214;SDS011;9233;51.312;6.512;2022-10-31T14:21:15;7.77;;;3.00;;
18214;SDS011;9233;51.312;6.512;2022-10-31T14:24:12;6.23;;;2.90;;
18214;SDS011;9233;51.312;6.512;2022-10-31T14:27:01;5.97;;;2.60;;
18214;SDS011;9233;51.312;6.512;2022-10-31T14:29:48;8.33;;;3.20;;
18214;SDS011;9233;51.312;6.512;2022-10-31T14:32:35;9.00;;;3.10;;
18214;SDS011;9233;51.312;6.512;2022-10-31T14:35:24;7.97;;;3.00;;
18214;SDS011;9233;51.312;6.512;2022-10-31T14:41:35;9.20;;;2.73;;
18214;SDS011;9233;51.312;6.512;2022-10-31T14:44:42;5.73;;;2.30;;
18214;SDS011;9233;51.312;6.512;2022-10-31T14:47:39;5.80;;;2.83;;
18214;SDS011;9233;51.312;6.512;2022-10-31T14:53:34;9.63;;;2.60;;
18214;SDS011;9233;51.312;6.512;2022-10-31T14:56:23;7.53;;;2.50;;
18214;SDS011;9233;51.312;6.512;2022-10-31T14:59:13;7.80;;;3.13;;
18214;SDS011;9233;51.312;6.512;2022-10-31T15:02:02;7.47;;;3.10;;
18214;SDS011;9233;51.312;6.512;2022-10-31T15:04:56;8.30;;;3.57;;
18214;SDS011;9233;51.312;6.512;2022-10-31T15:07:48;6.30;;;2.70;;
18214;SDS011;9233;51.312;6.512;2022-10-31T15:10:36;6.47;;;2.70;;
18214;SDS011;9233;51.312;6.512;2022-10-31T15:13:24;8.60;;;3.20;;
18214;SDS011;9233;51.312;6.512;2022-10-31T15:16:24;6.70;;;3.08;;
18214;SDS011;9233;51.312;6.512;2022-10-31T15:19:14;7.33;;;2.70;;
18214;SDS011;9233;51.312;6.512;2022-10-31T15:22:03;10.70;;;2.80;;
18214;SDS011;9233;51.312;6.512;2022-10-31T15:24:49;8.63;;;2.60;;
18214;SDS011;9233;51.312;6.512;2022-10-31T15:27:41;4.93;;;2.13;;
18214;SDS011;9233;51.312;6.512;2022-10-31T15:30:28;6.10;;;2.40;;
18214;SDS011;9233;51.312;6.512;2022-10-31T15:33:20;9.30;;;2.57;;
18214;SDS011;9233;51.312;6.512;2022-10-31T15:36:17;7.13;;;2.50;;
18214;SDS011;9233;51.312;6.512;2022-10-31T15:39:05;4.67;;;2.50;;
18214;SDS011;9233;51.312;6.512;2022-10-31T15:41:52;7.37;;;2.50;;
18214;SDS011;9233;51.312;6.512;2022-10-31T15:44:39;10.17;;;2.63;;
18214;SDS011;9233;51.312;6.512;2022-10-31T15:47:28;7.90;;;2.33;;
18214;SDS011;9233;51.312;6.512;2022-10-31T15:50:20;4.50;;;2.57;;
18214;SDS011;9233;51.312;6.512;2022-10-31T15:53:14;6.63;;;3.13;;
18214;SDS011;9233;51.312;6.512;2022-10-31T15:56:03;10.23;;;3.23;;
18214;SDS011;9233;51.312;6.512;2022-10-31T15:58:52;7.57;;;2.73;;
18214;SDS011;9233;51.312;6.512;2022-10-31T16:01:39;10.27;;;2.77;;
18214;SDS011;9233;51.312;6.512;2022-10-31T16:04:26;6.80;;;2.30;;
18214;SDS011;9233;51.312;6.512;2022-10-31T16:07:15;7.00;;;2.30;;
18214;SDS011;9233;51.312;6.512;2022-10-31T16:10:03;5.87;;;2.30;;
18214;SDS011;9233;51.312;6.512;2022-10-31T16:12:50;12.50;;;2.70;;
18214;SDS011;9233;51.312;6.512;2022-10-31T16:15:45;5.27;;;2.40;;
18214;SDS011;9233;51.312;6.512;2022-10-31T16:18:34;6.70;;;2.30;;
18214;SDS011;9233;51.312;6.512;2022-10-31T16:21:23;7.30;;;2.20;;
18214;SDS011;9233;51.312;6.512;2022-10-31T16:24:15;6.77;;;2.20;;
18214;SDS011;9233;51.312;6.512;2022-10-31T16:27:04;7.53;;;2.60;;
18214;SDS011;9233;51.312;6.512;2022-10-31T16:29:52;8.57;;;2.80;;
18214;SDS011;9233;51.312;6.512;2022-10-31T16:32:51;5.90;;;2.70;;
18214;SDS011;9233;51.312;6.512;2022-10-31T16:35:38;7.57;;;2.40;;
18214;SDS011;9233;51.312;6.512;2022-10-31T16:38:25;5.90;;;2.23;;
18214;SDS011;9233;51.312;6.512;2022-10-31T16:41:13;8.20;;;2.60;;
18214;SDS011;9233;51.312;6.512;2022-10-31T16:43:59;9.70;;;2.77;;
18214;SDS011;9233;51.312;6.512;2022-10-31T16:46:48;6.97;;;2.43;;
18214;SDS011;9233;51.312;6.512;2022-10-31T16:49:52;12.63;;;6.50;;
18214;SDS011;9233;51.312;6.512;2022-10-31T16:52:39;7.73;;;3.40;;
18214;SDS011;9233;51.312;6.512;2022-10-31T16:55:26;6.83;;;2.50;;
18214;SDS011;9233;51.312;6.512;2022-10-31T16:58:18;6.67;;;2.43;;
18214;SDS011;9233;51.312;6.512;2022-10-31T17:01:07;4.50;;;2.40;;
18214;SDS011;9233;51.312;6.512;2022-10-31T17:03:53;5.63;;;2.50;;
18214;SDS011;9233;51.312;6.512;2022-10-31T17:06:40;6.73;;;2.03;;
18214;SDS011;9233;51.312;6.512;2022-10-31T17:09:27;9.87;;;2.90;;
18214;SDS011;9233;51.312;6.512;2022-10-31T17:12:15;10.73;;;2.50;;
18214;SDS011;9233;51.312;6.512;2022-10-31T17:15:06;6.77;;;2.30;;
18214;SDS011;9233;51.312;6.512;2022-10-31T17:18:01;4.50;;;2.50;;
18214;SDS011;9233;51.312;6.512;2022-10-31T17:20:47;8.50;;;2.50;;
18214;SDS011;9233;51.312;6.512;2022-10-31T17:23:34;15.53;;;2.90;;
18214;SDS011;9233;51.312;6.512;2022-10-31T17:26:22;8.80;;;2.50;;
18214;SDS011;9233;51.312;6.512;2022-10-31T17:29:09;6.40;;;2.40;;
18214;SDS011;9233;51.312;6.512;2022-10-31T17:31:57;8.03;;;2.00;;
18214;SDS011;9233;51.312;6.512;2022-10-31T17:34:44;4.97;;;2.30;;
18214;SDS011;9233;51.312;6.512;2022-10-31T17:37:31;5.50;;;2.20;;
18214;SDS011;9233;51.312;6.512;2022-10-31T17:40:19;4.87;;;2.13;;
18214;SDS011;9233;51.312;6.512;2022-10-31T17:43:06;8.07;;;2.60;;
18214;SDS011;9233;51.312;6.512;2022-10-31T17:45:57;4.80;;;2.13;;
18214;SDS011;9233;51.312;6.512;2022-10-31T17:48:48;6.20;;;2.60;;